Time;durP1;ratioP1;P1;durP2;ratioP2;P2;SDS_P1;SDS_P2;PMS_P1;PMS_P2;Temp;Humidity;BMP_temperature;BMP_pressure;BME280_temperature;BME280_humidity;BME280_pressure;Samples;Min_cycle;Max_cycle;Signal;HPM_P1;HPM_P2
2020/01/09 00:00:15;;;;;;;5.6;3.4;;;;;;;3.3;63.47461;947.9341;;;;
2020/01/09 00:03:19;;;;;;;6.4;3.4;;;;;;;3.27;63.34766;947.8687;;;;
2020/01/09 00:05:14;;;;;;;6.3;3.5;;;;;;;3.38;63.6875;947.9224;;;;
2020/01/09 00:07:31;;;;;;;7.4;3.7;;;;;;;3.39;63.43262;947.9001;;;;
2020/01/09 00:10:00;;;;;;;9.7;4.2;;;;;;;3.48;63.81641;947.938;;;;
2020/01/09 00:12:22;;;;;;;7.5;4.1;;;;;;;3.55;63.74902;947.9236;;;;
2020/01/09 00:14:47;;;;;;;10;4.6;;;;;;;3.44;64.19336;947.8694;;;;
2020/01/09 00:17:12;;;;;;;11.7;4.9;;;;;;;3.39;64.4541;947.908;;;;
2020/01/09 00:19:37;;;;;;;6.9;3.9;;;;;;;3.38;63.87891;947.8878;;;;
2020/01/09 00:22:03;;;;;;;9;4.1;;;;;;;3.48;63.95117;947.9017;;;;
2020/01/09 00:24:28;;;;;;;8.1;3.9;;;;;;;3.42;64.15625;947.9376;;;;
2020/01/09 00:26:53;;;;;;;7.2;3.5;;;;;;;3.39;63.32031;947.96;;;;
2020/01/09 00:29:19;;;;;;;7.6;3.7;;;;;;;3.42;62.60547;947.9443;;;;
2020/01/09 00:31:44;;;;;;;7.7;4.1;;;;;;;3.55;63.11914;947.9621;;;;
2020/01/09 00:34:09;;;;;;;7.5;4;;;;;;;3.67;63.04688;947.986;;;;
2020/01/09 00:36:34;;;;;;;6.8;3.9;;;;;;;3.76;62.43066;948.0189;;;;
2020/01/09 00:39:00;;;;;;;7.9;4.4;;;;;;;3.61;62.70117;948.019;;;;
2020/01/09 00:41:25;;;;;;;7;3.6;;;;;;;3.57;63.78418;948.0095;;;;
2020/01/09 00:43:50;;;;;;;9.1;4.1;;;;;;;3.63;64.90527;947.9861;;;;
2020/01/09 00:46:15;;;;;;;7.4;3.8;;;;;;;3.66;63.82129;947.9573;;;;
2020/01/09 00:48:40;;;;;;;7.9;4.1;;;;;;;3.75;63.59863;947.9428;;;;
2020/01/09 00:51:06;;;;;;;8.2;4;;;;;;;3.8;63.4707;947.883;;;;
2020/01/09 00:53:31;;;;;;;8.3;3.9;;;;;;;3.79;63.71777;947.9551;;;;
2020/01/09 00:55:56;;;;;;;14.3;4.3;;;;;;;3.66;63.73145;947.9139;;;;
2020/01/09 00:58:22;;;;;;;9.1;4.3;;;;;;;3.48;64.7373;947.9329;;;;
2020/01/09 01:00:47;;;;;;;9.2;4.3;;;;;;;3.31;65.82422;947.9199;;;;
2020/01/09 01:03:12;;;;;;;9.6;4.5;;;;;;;3.26;65.64746;947.8904;;;;
2020/01/09 01:05:38;;;;;;;8.2;4.2;;;;;;;3.15;66.10156;947.8317;;;;
2020/01/09 01:08:03;;;;;;;8.1;4;;;;;;;3.11;65.35449;947.9688;;;;
2020/01/09 01:10:28;;;;;;;10;5.1;;;;;;;3.07;65.59473;947.9099;;;;
2020/01/09 01:12:53;;;;;;;7.4;4;;;;;;;3.01;65.78906;947.8597;;;;
2020/01/09 01:15:19;;;;;;;5.1;2.7;;;;;;;3.02;64.3418;947.8729;;;;
2020/01/09 01:17:44;;;;;;;7.5;4.2;;;;;;;3.13;64.4707;947.8588;;;;
2020/01/09 01:20:09;;;;;;;9.4;4.7;;;;;;;3.27;64.69434;947.8917;;;;
2020/01/09 01:22:34;;;;;;;6.3;3.7;;;;;;;3.25;65.06055;947.803;;;;
2020/01/09 01:24:59;;;;;;;8.3;4.4;;;;;;;3.25;65.09473;947.7156;;;;
2020/01/09 01:27:25;;;;;;;8.9;4.2;;;;;;;3.3;64.97949;947.7682;;;;
2020/01/09 01:29:50;;;;;;;8.4;4.2;;;;;;;3.32;65.14063;947.7;;;;
2020/01/09 01:32:15;;;;;;;6.6;3.4;;;;;;;3.28;65.42383;947.6472;;;;
2020/01/09 01:34:40;;;;;;;5.6;3.2;;;;;;;3.15;65.93262;947.5519;;;;
2020/01/09 01:37:06;;;;;;;6;2.9;;;;;;;3;66.71777;947.5147;;;;
2020/01/09 01:39:31;;;;;;;4.8;3.1;;;;;;;2.93;66.96289;947.4921;;;;
2020/01/09 01:41:57;;;;;;;5.1;3;;;;;;;2.83;67.31836;947.3889;;;;
2020/01/09 01:44:22;;;;;;;4.8;2.9;;;;;;;2.85;67.01758;947.3488;;;;
2020/01/09 01:46:47;;;;;;;4.6;2.7;;;;;;;2.79;66.98633;947.2958;;;;
2020/01/09 01:49:12;;;;;;;4.2;2.6;;;;;;;2.72;66.61719;947.198;;;;
2020/01/09 01:51:38;;;;;;;6.6;2.7;;;;;;;2.78;66.15527;947.0789;;;;
2020/01/09 01:54:03;;;;;;;4.1;2.3;;;;;;;2.73;66.70898;947.0309;;;;
2020/01/09 01:56:28;;;;;;;4.5;2.4;;;;;;;2.76;66.21973;946.9459;;;;
2020/01/09 01:58:53;;;;;;;3.8;2.1;;;;;;;2.8;65.46289;946.9016;;;;
2020/01/09 02:01:18;;;;;;;3.8;2.1;;;;;;;2.88;65.4082;946.8762;;;;
2020/01/09 02:03:43;;;;;;;10.4;2.8;;;;;;;2.86;65.46094;946.8192;;;;
2020/01/09 02:06:09;;;;;;;4.3;2;;;;;;;2.91;65.77246;946.7859;;;;
2020/01/09 02:08:34;;;;;;;4.6;2.3;;;;;;;2.94;65.74316;946.7438;;;;
2020/01/09 02:11:00;;;;;;;4.9;2.5;;;;;;;2.96;66.19629;946.6443;;;;
2020/01/09 02:13:25;;;;;;;5.9;2.9;;;;;;;2.97;66.72363;946.6386;;;;
2020/01/09 02:15:50;;;;;;;5.5;2.6;;;;;;;2.88;66.83398;946.6867;;;;
2020/01/09 02:18:15;;;;;;;3.6;2.1;;;;;;;2.79;66.80664;946.5817;;;;
2020/01/09 02:20:41;;;;;;;6.7;2.4;;;;;;;2.79;66.13379;946.5047;;;;
2020/01/09 02:23:06;;;;;;;4.6;2.4;;;;;;;2.83;65.79395;946.4623;;;;
2020/01/09 02:25:31;;;;;;;6.7;3;;;;;;;2.89;66.33008;946.4227;;;;
2020/01/09 02:27:57;;;;;;;6.3;3;;;;;;;2.83;67.10547;946.3546;;;;
2020/01/09 02:30:22;;;;;;;4.2;2.2;;;;;;;2.9;65.80371;946.3965;;;;
2020/01/09 02:32:47;;;;;;;7.8;2.5;;;;;;;3.01;65.43848;946.3638;;;;
2020/01/09 02:35:13;;;;;;;7.2;2.2;;;;;;;3.13;65.20996;946.2731;;;;
2020/01/09 02:37:38;;;;;;;4;2;;;;;;;3.26;65.15234;946.2192;;;;
2020/01/09 02:40:03;;;;;;;4.6;2;;;;;;;3.23;65.45117;946.1464;;;;
2020/01/09 02:42:28;;;;;;;4.6;2.3;;;;;;;3.24;65.66602;946.0451;;;;
2020/01/09 02:44:53;;;;;;;4;2.1;;;;;;;3.24;65.89063;946.0372;;;;
2020/01/09 02:47:18;;;;;;;6;2.3;;;;;;;3.17;66.38379;946.0705;;;;
2020/01/09 02:49:44;;;;;;;4;2;;;;;;;3.11;66.8457;946.0092;;;;
2020/01/09 02:52:09;;;;;;;5.1;2;;;;;;;3.04;67.11621;945.9311;;;;
2020/01/09 02:54:34;;;;;;;3.7;1.8;;;;;;;3;67.46777;945.9092;;;;
2020/01/09 02:57:00;;;;;;;2.6;1.6;;;;;;;2.9;67.91211;945.861;;;;
2020/01/09 02:59:25;;;;;;;3.4;2;;;;;;;2.89;67.53027;945.8684;;;;
2020/01/09 03:01:50;;;;;;;3;1.7;;;;;;;2.91;67.52246;945.8292;;;;
2020/01/09 03:04:16;;;;;;;4.1;2;;;;;;;2.97;67.29492;945.8172;;;;
2020/01/09 03:06:41;;;;;;;4.1;1.9;;;;;;;2.99;66.7832;945.8262;;;;
2020/01/09 03:09:06;;;;;;;3.3;1.8;;;;;;;3.05;66.09766;945.777;;;;
2020/01/09 03:11:32;;;;;;;2.7;1.5;;;;;;;3.24;65.87891;945.7224;;;;
2020/01/09 03:13:57;;;;;;;6.2;1.9;;;;;;;3.2;65.6377;945.6133;;;;
2020/01/09 03:16:22;;;;;;;2.5;1.6;;;;;;;3.23;65.56348;945.6237;;;;
2020/01/09 03:18:47;;;;;;;2.3;1.6;;;;;;;3.29;66.23535;945.5148;;;;
2020/01/09 03:21:13;;;;;;;3.3;1.8;;;;;;;3.32;66.47559;945.5295;;;;
2020/01/09 03:23:38;;;;;;;5.2;1.9;;;;;;;3.43;65.94336;945.5497;;;;
2020/01/09 03:26:03;;;;;;;4.9;2;;;;;;;3.28;66.52539;945.5399;;;;
2020/01/09 03:28:28;;;;;;;2.8;1.6;;;;;;;3.21;66.3457;945.4788;;;;
2020/01/09 03:30:53;;;;;;;2.5;1.6;;;;;;;3.11;66.4082;945.4994;;;;
2020/01/09 03:33:19;;;;;;;2.5;1.5;;;;;;;3.11;66.11621;945.4537;;;;
2020/01/09 03:35:44;;;;;;;4;1.8;;;;;;;3.18;65.55664;945.4662;;;;
2020/01/09 03:38:09;;;;;;;6.9;5.4;;;;;;;3.32;65.02734;945.4203;;;;
2020/01/09 03:40:51;;;;;;;4.2;1.8;;;;;;;3.32;64.74609;945.4367;;;;
2020/01/09 03:43:00;;;;;;;3.7;1.8;;;;;;;3.34;65.05371;945.3875;;;;
2020/01/09 03:45:25;;;;;;;2.6;1.6;;;;;;;3.36;64.77539;945.3076;;;;
2020/01/09 03:47:50;;;;;;;2.6;1.4;;;;;;;3.41;64.20996;945.2165;;;;
2020/01/09 03:50:15;;;;;;;2.3;1.5;;;;;;;3.55;63.99609;945.2891;;;;
2020/01/09 03:52:40;;;;;;;2.3;1.5;;;;;;;3.59;64.05762;945.3309;;;;
2020/01/09 03:55:06;;;;;;;5.4;1.8;;;;;;;3.47;66.0293;945.3453;;;;
2020/01/09 03:57:31;;;;;;;4.4;1.7;;;;;;;3.05;66.9375;945.3243;;;;
2020/01/09 03:59:56;;;;;;;6;2.1;;;;;;;2.93;67.90625;945.2701;;;;
2020/01/09 04:02:30;;;;;;;2.5;1.6;;;;;;;2.9;68.18262;945.3878;;;;
2020/01/09 04:04:55;;;;;;;3.2;2;;;;;;;2.83;68.61816;945.2683;;;;
2020/01/09 04:07:20;;;;;;;3.3;1.9;;;;;;;2.77;69.0127;945.342;;;;
2020/01/09 04:09:45;;;;;;;3.7;2.1;;;;;;;2.75;68.90918;945.2642;;;;
2020/01/09 04:12:10;;;;;;;5.1;2.7;;;;;;;2.74;68.59375;945.303;;;;
2020/01/09 04:14:35;;;;;;;5.9;3.3;;;;;;;2.76;68.66504;945.2766;;;;
2020/01/09 04:17:01;;;;;;;4.8;2.7;;;;;;;2.88;68.08984;945.1342;;;;
2020/01/09 04:19:26;;;;;;;3.8;2.3;;;;;;;2.93;68.01855;945.2481;;;;
2020/01/09 04:21:51;;;;;;;8.3;3.5;;;;;;;2.89;68.10254;945.31;;;;
2020/01/09 04:24:16;;;;;;;8.2;3.2;;;;;;;3.06;67.63672;945.2999;;;;
2020/01/09 04:26:41;;;;;;;11.3;3.9;;;;;;;3.14;67.46973;945.2975;;;;
2020/01/09 04:29:06;;;;;;;9.5;4.4;;;;;;;3.13;67.48926;945.2473;;;;
2020/01/09 04:31:31;;;;;;;11.5;5.4;;;;;;;3.13;67.59082;945.3354;;;;
2020/01/09 04:33:56;;;;;;;6.6;4;;;;;;;3.07;67.90527;945.3105;;;;
2020/01/09 04:36:21;;;;;;;13.3;6.5;;;;;;;3.12;68.08301;945.2617;;;;
2020/01/09 04:38:46;;;;;;;6.4;3.9;;;;;;;2.91;68.44238;945.3685;;;;
2020/01/09 04:41:12;;;;;;;6.7;3.9;;;;;;;2.87;68.71484;945.3052;;;;
2020/01/09 04:43:37;;;;;;;5.5;3;;;;;;;2.87;68.7168;945.3942;;;;
2020/01/09 04:46:02;;;;;;;6.1;3.4;;;;;;;2.96;68.95508;945.3113;;;;
2020/01/09 04:48:27;;;;;;;5.7;3.2;;;;;;;3.1;68.5957;945.3647;;;;
2020/01/09 04:50:52;;;;;;;6.3;3.7;;;;;;;3.11;68.74316;945.3061;;;;
2020/01/09 04:53:17;;;;;;;6.7;3.7;;;;;;;3.2;68.41016;945.4063;;;;
2020/01/09 04:55:42;;;;;;;8.1;5.4;;;;;;;3.04;68.7207;945.375;;;;
2020/01/09 04:58:07;;;;;;;13.2;8.7;;;;;;;2.85;69.31738;945.452;;;;
2020/01/09 05:00:32;;;;;;;10.1;7.4;;;;;;;2.64;70.10254;945.4922;;;;
2020/01/09 05:02:58;;;;;;;10.8;7.4;;;;;;;2.47;70.5;945.481;;;;
2020/01/09 05:05:23;;;;;;;9.5;5.8;;;;;;;2.53;70.37598;945.5005;;;;
2020/01/09 05:07:48;;;;;;;9.7;5.2;;;;;;;2.52;70.26074;945.5707;;;;
2020/01/09 05:10:13;;;;;;;7;4.4;;;;;;;2.47;70.27539;945.5778;;;;
2020/01/09 05:12:38;;;;;;;15.9;9.5;;;;;;;2.59;69.43359;945.5761;;;;
2020/01/09 05:15:03;;;;;;;12.7;7.6;;;;;;;2.79;69.02734;945.5742;;;;
2020/01/09 05:17:28;;;;;;;8.7;4.8;;;;;;;2.86;68.64746;945.6202;;;;
2020/01/09 05:19:53;;;;;;;7.3;4;;;;;;;2.65;69.71094;945.6918;;;;
2020/01/09 05:22:19;;;;;;;8.8;4.9;;;;;;;2.59;69.58887;945.657;;;;
2020/01/09 05:24:43;;;;;;;8.7;5.6;;;;;;;2.63;69.57227;945.6629;;;;
2020/01/09 05:27:09;;;;;;;10.9;5.9;;;;;;;2.69;69.34766;945.5687;;;;
2020/01/09 05:29:34;;;;;;;7;4.2;;;;;;;2.62;69.63965;945.6422;;;;
2020/01/09 05:31:59;;;;;;;6.6;5.2;;;;;;;2.25;71.38184;945.5983;;;;
2020/01/09 05:34:24;;;;;;;13.7;9.3;;;;;;;2.22;72.18359;945.6164;;;;
2020/01/09 05:36:49;;;;;;;16.1;11.4;;;;;;;2.15;73.20117;945.5622;;;;
2020/01/09 05:39:14;;;;;;;17;12.3;;;;;;;2.12;73.46387;945.5314;;;;
2020/01/09 05:41:39;;;;;;;14.8;9.8;;;;;;;2.12;73.43164;945.5725;;;;
2020/01/09 05:44:04;;;;;;;15.2;10.2;;;;;;;2.23;72.90039;945.5988;;;;
2020/01/09 05:46:30;;;;;;;15.2;9.9;;;;;;;2.37;72.34375;945.537;;;;
2020/01/09 05:48:55;;;;;;;27.1;17.5;;;;;;;2.52;71.57129;945.6295;;;;
2020/01/09 05:51:20;;;;;;;28.2;18.1;;;;;;;2.51;71.66016;945.5781;;;;
2020/01/09 05:53:45;;;;;;;16.8;11.2;;;;;;;2.54;71.42871;945.5158;;;;
2020/01/09 05:56:10;;;;;;;21.5;12;;;;;;;2.59;71.01367;945.6233;;;;
2020/01/09 05:58:35;;;;;;;14.9;9.3;;;;;;;2.59;70.39746;945.6155;;;;
2020/01/09 06:01:00;;;;;;;12.2;8.6;;;;;;;2.51;70.75391;945.6019;;;;
2020/01/09 06:03:25;;;;;;;12;8.3;;;;;;;2.46;70.83398;945.6172;;;;
2020/01/09 06:05:50;;;;;;;13.4;8.1;;;;;;;2.47;70.95898;945.5825;;;;
2020/01/09 06:08:15;;;;;;;13.2;8.9;;;;;;;2.49;70.90625;945.4703;;;;
2020/01/09 06:10:41;;;;;;;14.4;9.2;;;;;;;2.44;70.98828;945.6108;;;;
2020/01/09 06:13:06;;;;;;;12;8.4;;;;;;;2.38;71.07813;945.5366;;;;
2020/01/09 06:15:31;;;;;;;12;7.6;;;;;;;2.34;71.2959;945.5778;;;;
2020/01/09 06:17:56;;;;;;;12.1;6.5;;;;;;;2.39;70.92285;945.5608;;;;
2020/01/09 06:20:21;;;;;;;12.8;7.6;;;;;;;2.46;70.80078;945.6091;;;;
2020/01/09 06:22:46;;;;;;;12.2;7.7;;;;;;;2.45;70.67578;945.5513;;;;
2020/01/09 06:25:35;;;;;;;13.2;7.8;;;;;;;2.29;71.07422;945.5303;;;;
2020/01/09 06:28:00;;;;;;;12;7.5;;;;;;;2.2;71.69727;945.5693;;;;
2020/01/09 06:30:26;;;;;;;13.8;7.5;;;;;;;2.17;71.83691;945.595;;;;
2020/01/09 06:32:51;;;;;;;10.3;5.9;;;;;;;2.23;71.27637;945.4556;;;;
2020/01/09 06:35:16;;;;;;;11.1;5.7;;;;;;;2.16;72.46387;945.4952;;;;
2020/01/09 06:37:41;;;;;;;9.6;4.9;;;;;;;2.24;71.41211;945.4922;;;;
2020/01/09 06:40:06;;;;;;;8.3;4.9;;;;;;;2.31;71.26758;945.4852;;;;
2020/01/09 06:42:31;;;;;;;10.2;4.7;;;;;;;2.4;70.54492;945.4808;;;;
2020/01/09 06:44:56;;;;;;;7.3;4.4;;;;;;;2.48;69.89746;945.4391;;;;
2020/01/09 06:47:21;;;;;;;10.3;4.7;;;;;;;2.59;69.51172;945.3293;;;;
2020/01/09 06:49:46;;;;;;;7.9;5;;;;;;;2.6;69.74707;945.2745;;;;
2020/01/09 06:52:11;;;;;;;10.5;6.3;;;;;;;2.55;70.10938;945.3207;;;;
2020/01/09 06:54:37;;;;;;;13.8;6.4;;;;;;;2.53;70.30859;945.3889;;;;
2020/01/09 06:57:02;;;;;;;21;10;;;;;;;2.55;70.27734;945.3719;;;;
2020/01/09 06:59:27;;;;;;;44;21.1;;;;;;;2.57;70.93066;945.3484;;;;
2020/01/09 07:01:52;;;;;;;51.6;22.7;;;;;;;2.45;71.19141;945.3739;;;;
2020/01/09 07:04:17;;;;;;;46;21.1;;;;;;;2.41;71.37402;945.3898;;;;
2020/01/09 07:06:42;;;;;;;44.1;19.3;;;;;;;2.44;70.98633;945.3867;;;;
2020/01/09 07:09:07;;;;;;;43.3;18.9;;;;;;;2.49;70.63672;945.383;;;;
2020/01/09 07:11:32;;;;;;;45.9;19.9;;;;;;;2.52;70.54199;945.3672;;;;
2020/01/09 07:13:57;;;;;;;44.7;19.6;;;;;;;2.47;70.7793;945.4017;;;;
2020/01/09 07:16:22;;;;;;;33.7;16.7;;;;;;;2.23;71.81445;945.2986;;;;
2020/01/09 07:18:47;;;;;;;31.9;14.6;;;;;;;2.18;72.41113;945.2856;;;;
2020/01/09 07:21:12;;;;;;;33.1;15.7;;;;;;;2.38;71.80664;945.2742;;;;
2020/01/09 07:23:37;;;;;;;34.2;15.9;;;;;;;2.54;71.27246;945.2651;;;;
2020/01/09 07:26:03;;;;;;;31.3;15.4;;;;;;;2.43;71.5918;945.2034;;;;
2020/01/09 07:28:28;;;;;;;37.6;18.6;;;;;;;2.33;71.91113;945.2762;;;;
2020/01/09 07:30:53;;;;;;;34.3;18.8;;;;;;;2.35;71.52148;945.2342;;;;
2020/01/09 07:33:18;;;;;;;37.4;19.5;;;;;;;2.48;71.07422;945.2294;;;;
2020/01/09 07:35:43;;;;;;;47.4;25;;;;;;;2.48;71.19629;945.0939;;;;
2020/01/09 07:38:08;;;;;;;62.5;34.3;;;;;;;2.56;73.03613;945.1555;;;;
2020/01/09 07:40:33;;;;;;;51.6;29.3;;;;;;;2.54;71.46387;945.1372;;;;
2020/01/09 07:42:58;;;;;;;38.2;21.4;;;;;;;2.61;71.02832;945.1454;;;;
2020/01/09 07:45:24;;;;;;;35.9;18.2;;;;;;;2.67;71.03711;945.0463;;;;
2020/01/09 07:47:49;;;;;;;32.6;16.4;;;;;;;2.74;70.87012;945.1269;;;;
2020/01/09 07:50:14;;;;;;;22;13;;;;;;;2.7;70.68457;945.1289;;;;
2020/01/09 07:52:40;;;;;;;23.2;12.4;;;;;;;2.68;70.34473;945.1414;;;;
2020/01/09 07:55:05;;;;;;;22.1;11.1;;;;;;;2.73;70.54297;945.1038;;;;
2020/01/09 07:57:30;;;;;;;20.2;11.7;;;;;;;2.86;70.16016;945.1833;;;;
2020/01/09 07:59:55;;;;;;;14.3;9;;;;;;;2.86;69.53418;945.1074;;;;
2020/01/09 08:02:20;;;;;;;14.5;8.2;;;;;;;2.91;69.08105;945.0964;;;;
2020/01/09 08:04:45;;;;;;;10.6;7.2;;;;;;;3.14;68.2998;945.1046;;;;
2020/01/09 08:07:11;;;;;;;13.7;9;;;;;;;3.65;67.30273;945.0823;;;;
2020/01/09 08:09:36;;;;;;;15.5;8.6;;;;;;;4.16;66.14648;945.0775;;;;
2020/01/09 08:12:01;;;;;;;14.1;7.6;;;;;;;4.38;64.87305;944.9982;;;;
2020/01/09 08:14:26;;;;;;;12;7.1;;;;;;;4.39;64.56152;944.8459;;;;
2020/01/09 08:16:51;;;;;;;12.9;7.9;;;;;;;4.63;63.77441;944.963;;;;
2020/01/09 08:19:17;;;;;;;14.1;6.8;;;;;;;4.67;62.28223;944.9203;;;;
2020/01/09 08:21:42;;;;;;;12.7;6.8;;;;;;;4.75;62.26172;944.8025;;;;
2020/01/09 08:24:07;;;;;;;10.4;6;;;;;;;4.94;61.25098;944.8791;;;;
2020/01/09 08:26:32;;;;;;;14.3;6.6;;;;;;;4.88;61.81738;944.8578;;;;
2020/01/09 08:28:57;;;;;;;13.4;7;;;;;;;5.49;60.6416;944.875;;;;
2020/01/09 08:31:22;;;;;;;12.5;7.2;;;;;;;6.1;58.69434;944.81;;;;
2020/01/09 08:33:47;;;;;;;11;6.7;;;;;;;6.14;58.22656;944.8773;;;;
2020/01/09 08:36:12;;;;;;;10.4;6.6;;;;;;;6.25;57.89063;944.7811;;;;
2020/01/09 08:38:38;;;;;;;11.3;7.1;;;;;;;6.49;56.68945;944.7526;;;;
2020/01/09 08:41:03;;;;;;;16.3;8.4;;;;;;;6.72;56.29004;944.7261;;;;
2020/01/09 08:43:28;;;;;;;14.7;7.7;;;;;;;6.81;55.50977;944.7249;;;;
2020/01/09 08:45:53;;;;;;;10.9;6.3;;;;;;;6.99;54.67285;944.5844;;;;
2020/01/09 08:48:18;;;;;;;8.7;5.4;;;;;;;7.16;53.32227;944.5417;;;;
2020/01/09 08:50:43;;;;;;;20.5;7.1;;;;;;;7.7;52.97168;944.5967;;;;
2020/01/09 08:53:08;;;;;;;15.4;6.3;;;;;;;7.76;52.25195;944.5684;;;;
2020/01/09 08:55:33;;;;;;;12.1;5.6;;;;;;;7.34;53.16504;944.5842;;;;
2020/01/09 08:57:58;;;;;;;18.4;5.2;;;;;;;7.1;53.91602;944.5106;;;;
2020/01/09 09:00:23;;;;;;;18.2;4.7;;;;;;;6.81;54.62695;944.5331;;;;
2020/01/09 09:02:48;;;;;;;11.1;4.4;;;;;;;6.59;55.38965;944.476;;;;
2020/01/09 09:05:14;;;;;;;30.7;5.4;;;;;;;6.44;56.00488;944.4931;;;;
2020/01/09 09:07:39;;;;;;;22.3;5.3;;;;;;;6.37;55.97168;944.4537;;;;
2020/01/09 09:10:04;;;;;;;29.4;5.6;;;;;;;6.32;55.96582;944.4203;;;;
2020/01/09 09:12:29;;;;;;;21.9;5.2;;;;;;;6.33;55.50293;944.345;;;;
2020/01/09 09:14:54;;;;;;;19.5;5.5;;;;;;;6.41;55.93262;944.2792;;;;
2020/01/09 09:17:19;;;;;;;70.9;8.1;;;;;;;6.48;56.04297;944.2459;;;;
2020/01/09 09:19:44;;;;;;;16.4;4;;;;;;;6.59;54.9375;944.1855;;;;
2020/01/09 09:22:09;;;;;;;13;5.3;;;;;;;6.53;54.52344;944.1719;;;;
2020/01/09 09:24:34;;;;;;;28;6.5;;;;;;;6.6;54.8252;944.1866;;;;
2020/01/09 09:26:59;;;;;;;30.9;6.1;;;;;;;6.67;53.7373;944.142;;;;
2020/01/09 09:29:25;;;;;;;49.9;6.2;;;;;;;6.74;53.56543;944.0849;;;;
2020/01/09 09:31:50;;;;;;;41.2;6;;;;;;;6.79;53.36816;944.0416;;;;
2020/01/09 09:34:15;;;;;;;33.6;5.3;;;;;;;6.91;52.71484;943.9537;;;;
2020/01/09 09:36:40;;;;;;;14.6;2.8;;;;;;;6.95;50.97656;943.9275;;;;
2020/01/09 09:39:05;;;;;;;45.4;5.1;;;;;;;7.04;51.59766;943.8903;;;;
2020/01/09 09:41:30;;;;;;;27.6;3.9;;;;;;;7.19;50.61914;943.8102;;;;
2020/01/09 09:43:56;;;;;;;27.8;3.1;;;;;;;7.37;50.4707;943.7311;;;;
2020/01/09 09:46:20;;;;;;;40.9;4.7;;;;;;;7.47;50.3916;943.6415;;;;
2020/01/09 09:48:46;;;;;;;27;3.7;;;;;;;7.51;49.88477;943.5151;;;;
2020/01/09 09:51:11;;;;;;;40.4;4.4;;;;;;;7.69;50.33789;943.5207;;;;
2020/01/09 09:53:37;;;;;;;37;4.8;;;;;;;7.71;49.5127;943.4406;;;;
2020/01/09 09:56:03;;;;;;;14.7;3.1;;;;;;;7.75;48.99512;943.4116;;;;
2020/01/09 09:58:28;;;;;;;27.2;3.8;;;;;;;7.9;47.77441;943.2985;;;;
2020/01/09 10:00:53;;;;;;;60.8;5.6;;;;;;;8.05;47.30371;943.257;;;;
2020/01/09 10:03:19;;;;;;;24.8;3.4;;;;;;;8.23;48.0498;943.2033;;;;
2020/01/09 10:05:44;;;;;;;50.7;6.1;;;;;;;8.34;48.30078;943.1501;;;;
2020/01/09 10:08:09;;;;;;;48.7;5.6;;;;;;;8.29;47.23828;943.0675;;;;
2020/01/09 10:10:34;;;;;;;38.5;4.8;;;;;;;8.46;47.75684;943.1097;;;;
2020/01/09 10:13:00;;;;;;;22.7;3.7;;;;;;;8.47;46.66699;943.0949;;;;
2020/01/09 10:15:25;;;;;;;17.3;2.9;;;;;;;8.49;47.0332;943.0978;;;;
2020/01/09 10:17:50;;;;;;;11.4;2.3;;;;;;;8.55;46.1875;943.0223;;;;
2020/01/09 10:20:15;;;;;;;16.3;2.1;;;;;;;8.66;46.75586;943.03;;;;
2020/01/09 10:22:41;;;;;;;6.4;1.8;;;;;;;8.78;45.70117;942.9917;;;;
2020/01/09 10:25:06;;;;;;;2.7;1.1;;;;;;;8.99;44.40332;942.9506;;;;
2020/01/09 10:27:31;;;;;;;18.7;2.7;;;;;;;9.11;45.17773;942.8845;;;;
2020/01/09 10:29:56;;;;;;;21.4;2.3;;;;;;;9.27;44.77344;942.8129;;;;
2020/01/09 10:32:21;;;;;;;13.8;2.2;;;;;;;9.36;44.45313;942.7726;;;;
2020/01/09 10:34:46;;;;;;;22.6;2.9;;;;;;;9.47;44.75977;942.668;;;;
2020/01/09 10:37:12;;;;;;;6.5;1.5;;;;;;;9.61;44.49023;942.6965;;;;
2020/01/09 10:39:37;;;;;;;2;0.8;;;;;;;9.6;43.7832;942.6429;;;;
2020/01/09 10:42:02;;;;;;;17;2.4;;;;;;;9.55;44.67773;942.6131;;;;
2020/01/09 10:44:27;;;;;;;32.9;3.7;;;;;;;9.57;45.0791;942.6041;;;;
2020/01/09 10:46:52;;;;;;;13.8;2.4;;;;;;;9.6;43.95313;942.5179;;;;
2020/01/09 10:49:17;;;;;;;32.8;3.7;;;;;;;9.7;44.20313;942.5179;;;;
2020/01/09 10:51:42;;;;;;;18.9;2.6;;;;;;;9.82;44.13574;942.4983;;;;
2020/01/09 10:54:08;;;;;;;7.2;1.8;;;;;;;9.99;44.50586;942.4344;;;;
2020/01/09 10:56:33;;;;;;;3.2;1;;;;;;;9.99;45.73828;942.4146;;;;
2020/01/09 10:58:58;;;;;;;2.3;1;;;;;;;10.04;46.00488;942.3935;;;;
2020/01/09 11:01:24;;;;;;;5.2;1.4;;;;;;;10.09;44.9502;942.3236;;;;
2020/01/09 11:03:49;;;;;;;5.1;1.6;;;;;;;10.18;44.9707;942.2925;;;;
2020/01/09 11:06:14;;;;;;;4.7;1.5;;;;;;;10.16;45.96191;942.2747;;;;
2020/01/09 11:08:40;;;;;;;3.9;1.1;;;;;;;10.06;44.51367;942.1909;;;;
2020/01/09 11:11:05;;;;;;;3.4;1;;;;;;;10.15;44.94531;942.1877;;;;
2020/01/09 11:13:30;;;;;;;5.9;1.4;;;;;;;10.23;44.00586;942.1976;;;;
2020/01/09 11:15:55;;;;;;;7.9;1.4;;;;;;;10.4;42.92773;942.1264;;;;
2020/01/09 11:18:20;;;;;;;8;1.9;;;;;;;10.43;42.23535;942.0762;;;;
2020/01/09 11:20:45;;;;;;;7.5;2;;;;;;;10.54;42.70117;942.0684;;;;
2020/01/09 11:23:12;;;;;;;15.6;2.1;;;;;;;10.6;41.34961;941.9794;;;;
2020/01/09 11:25:36;;;;;;;7.6;1.4;;;;;;;10.54;40.65723;941.9689;;;;
2020/01/09 11:28:02;;;;;;;9.9;1.9;;;;;;;10.7;41.42676;941.8864;;;;
2020/01/09 11:30:27;;;;;;;5.7;1.2;;;;;;;10.71;41.05176;941.8555;;;;
2020/01/09 11:32:52;;;;;;;22.8;3.5;;;;;;;10.9;41.7998;941.7924;;;;
2020/01/09 11:35:18;;;;;;;29.5;3;;;;;;;11.08;42.89258;941.7791;;;;
2020/01/09 11:37:43;;;;;;;4.1;1.1;;;;;;;11.19;42.49219;941.68;;;;
2020/01/09 11:40:08;;;;;;;6.8;1.4;;;;;;;11.25;42.31445;941.6102;;;;
2020/01/09 11:42:33;;;;;;;5.7;1.3;;;;;;;11.36;41.70703;941.538;;;;
2020/01/09 11:44:58;;;;;;;8.9;1.4;;;;;;;11.4;40.68164;941.4739;;;;
2020/01/09 11:47:24;;;;;;;5.9;1.1;;;;;;;11.52;40.14355;941.3734;;;;
2020/01/09 11:49:49;;;;;;;3.8;1.5;;;;;;;11.63;38.76855;941.3956;;;;
2020/01/09 11:52:14;;;;;;;14.1;2.6;;;;;;;11.79;40.9248;941.3633;;;;
2020/01/09 11:54:39;;;;;;;11;1.9;;;;;;;11.82;41.67188;941.3049;;;;
2020/01/09 11:57:04;;;;;;;16.6;2.9;;;;;;;11.76;41.21973;941.255;;;;
2020/01/09 11:59:30;;;;;;;54.7;6.6;;;;;;;11.98;41.24023;941.2592;;;;
2020/01/09 12:01:55;;;;;;;25.7;3.3;;;;;;;12.15;41.34863;941.1731;;;;
2020/01/09 12:04:20;;;;;;;17.4;3.2;;;;;;;12.27;41.34766;941.1136;;;;
2020/01/09 12:06:45;;;;;;;26.6;3.5;;;;;;;12.41;41.95801;941.0723;;;;
2020/01/09 12:09:10;;;;;;;9.8;1.8;;;;;;;12.52;40.85547;940.9607;;;;
2020/01/09 12:11:36;;;;;;;6.8;1.8;;;;;;;12.53;40.44434;940.8792;;;;
2020/01/09 12:14:00;;;;;;;30;3.5;;;;;;;12.74;40.86523;940.8359;;;;
2020/01/09 12:16:26;;;;;;;19.8;3.1;;;;;;;12.89;40.4541;940.9097;;;;
2020/01/09 12:18:51;;;;;;;13.5;2.5;;;;;;;12.94;40.17285;940.8557;;;;
2020/01/09 12:21:21;;;;;;;15.4;2.9;;;;;;;12.81;39.79297;940.8339;;;;
2020/01/09 12:23:41;;;;;;;13.6;2.4;;;;;;;12.79;40.41113;940.8267;;;;
2020/01/09 12:26:06;;;;;;;20;3.2;;;;;;;12.99;40.49805;940.7416;;;;
2020/01/09 12:28:31;;;;;;;11.8;3.1;;;;;;;12.9;40.55859;940.6613;;;;
2020/01/09 12:30:56;;;;;;;8.9;2.8;;;;;;;12.96;40.47168;940.6886;;;;
2020/01/09 12:33:21;;;;;;;9.5;2.5;;;;;;;13.14;40.25977;940.7392;;;;
2020/01/09 12:35:46;;;;;;;6.5;1.9;;;;;;;13.21;38.72656;940.7238;;;;
2020/01/09 12:38:11;;;;;;;9.9;2.2;;;;;;;13.14;38.89258;940.7159;;;;
2020/01/09 12:40:36;;;;;;;8;2.1;;;;;;;13.21;39.07129;940.6805;;;;
2020/01/09 12:43:02;;;;;;;6.1;2.3;;;;;;;13.2;38.84082;940.647;;;;
2020/01/09 12:45:27;;;;;;;17.4;3.4;;;;;;;13.21;38.1748;940.5854;;;;
2020/01/09 12:47:52;;;;;;;11.2;3.6;;;;;;;13.01;38.58301;940.6028;;;;
2020/01/09 12:50:17;;;;;;;25.6;4.6;;;;;;;13.03;39.70898;940.5829;;;;
2020/01/09 12:52:42;;;;;;;16.9;3.9;;;;;;;13.07;38.41602;940.5255;;;;
2020/01/09 12:55:07;;;;;;;13.6;3.3;;;;;;;12.91;38.53906;940.5078;;;;
2020/01/09 12:57:32;;;;;;;11.9;3.1;;;;;;;12.77;39.1123;940.5069;;;;
2020/01/09 12:59:58;;;;;;;21.1;3.7;;;;;;;12.89;39.88086;940.4917;;;;
2020/01/09 13:02:23;;;;;;;25.1;3.8;;;;;;;12.95;40.15039;940.4584;;;;
2020/01/09 13:04:48;;;;;;;18;4.5;;;;;;;13.26;39.97168;940.4403;;;;
2020/01/09 13:07:13;;;;;;;13.8;4.5;;;;;;;13.46;39.66797;940.461;;;;
2020/01/09 13:09:38;;;;;;;20.7;5;;;;;;;13.43;39.08008;940.4881;;;;
2020/01/09 13:12:04;;;;;;;17.2;5.6;;;;;;;13.44;39.14941;940.493;;;;
2020/01/09 13:14:29;;;;;;;15.3;4.6;;;;;;;13.37;37.71777;940.4645;;;;
2020/01/09 13:16:54;;;;;;;11.7;4.1;;;;;;;13.48;38.44043;940.4771;;;;
2020/01/09 13:19:19;;;;;;;11.6;4.1;;;;;;;13.3;37.80371;940.4772;;;;
2020/01/09 13:21:44;;;;;;;25.5;5.2;;;;;;;13.48;38.62402;940.4922;;;;
2020/01/09 13:24:09;;;;;;;17.8;4.3;;;;;;;13.74;38.12988;940.4609;;;;
2020/01/09 13:26:35;;;;;;;20.6;4.4;;;;;;;13.72;37.94434;940.4464;;;;
2020/01/09 13:29:00;;;;;;;12.3;3.2;;;;;;;13.7;37.48145;940.492;;;;
2020/01/09 13:31:25;;;;;;;9.9;1.8;;;;;;;13.79;37.76563;940.4568;;;;
2020/01/09 13:33:50;;;;;;;16.8;2.9;;;;;;;13.73;37.69141;940.432;;;;
2020/01/09 13:36:15;;;;;;;11.1;2;;;;;;;13.83;37.95313;940.4364;;;;
2020/01/09 13:38:40;;;;;;;11.2;2.1;;;;;;;14.07;37.2959;940.4006;;;;
2020/01/09 13:41:05;;;;;;;12.3;2.3;;;;;;;14.61;36.56836;940.4406;;;;
2020/01/09 13:43:30;;;;;;;14.9;2.1;;;;;;;15.08;35.59277;940.4696;;;;
2020/01/09 13:45:55;;;;;;;23.9;3;;;;;;;15.65;34.73926;940.4853;;;;
2020/01/09 13:48:20;;;;;;;13.3;2.3;;;;;;;16.18;33.4043;940.4618;;;;
2020/01/09 13:50:45;;;;;;;9.4;1.9;;;;;;;16.31;32.55762;940.4441;;;;
2020/01/09 13:53:11;;;;;;;9.9;1.9;;;;;;;16.58;32.7168;940.3808;;;;
2020/01/09 13:55:36;;;;;;;13.3;2.6;;;;;;;17.62;31.34375;940.3571;;;;
2020/01/09 13:58:01;;;;;;;10.6;2.7;;;;;;;18;30.3252;940.3786;;;;
2020/01/09 14:00:26;;;;;;;9.7;2.4;;;;;;;17.93;29.90332;940.3869;;;;
2020/01/09 14:02:51;;;;;;;10.9;2.5;;;;;;;18.21;29.77051;940.3183;;;;
2020/01/09 14:05:16;;;;;;;15.3;2.8;;;;;;;18.29;29.21875;940.3713;;;;
2020/01/09 14:07:41;;;;;;;22.6;3.2;;;;;;;18.09;29.41504;940.329;;;;
2020/01/09 14:10:06;;;;;;;12.8;3.5;;;;;;;17.51;30.11719;940.3094;;;;
2020/01/09 14:12:31;;;;;;;19.3;4;;;;;;;16.35;32.16797;940.3006;;;;
2020/01/09 14:14:56;;;;;;;12.1;2.8;;;;;;;15.59;33.90234;940.385;;;;